createdAt,value
2017-06-10T00:00:37.807Z,0
2017-06-10T00:01:18.481Z,0
2017-06-10T00:02:00.191Z,0
2017-06-10T00:02:40.790Z,0
2017-06-10T00:03:21.325Z,0
2017-06-10T00:04:01.983Z,0
2017-06-10T00:04:42.543Z,0
2017-06-10T00:05:23.075Z,0
2017-06-10T00:06:03.714Z,0
2017-06-10T00:06:44.298Z,0
2017-06-10T00:07:24.845Z,0
2017-06-10T00:08:05.467Z,0
2017-06-10T00:08:46.051Z,0
2017-06-10T00:09:26.575Z,0
2017-06-10T00:10:07.210Z,0
2017-06-10T00:10:48.824Z,0
2017-06-10T00:11:29.389Z,0
2017-06-10T00:12:10.002Z,0
2017-06-10T00:12:50.586Z,0
2017-06-10T00:13:31.119Z,0
2017-06-10T00:14:11.745Z,0
2017-06-10T00:14:52.450Z,0
2017-06-10T00:15:32.970Z,0
2017-06-10T00:16:14.519Z,0
2017-06-10T00:16:55.124Z,0
2017-06-10T00:17:35.656Z,0
2017-06-10T00:18:16.274Z,0
2017-06-10T00:18:56.878Z,0
2017-06-10T00:19:37.526Z,0
2017-06-10T00:20:18.084Z,0
2017-06-10T00:20:58.735Z,0
2017-06-10T00:21:39.387Z,0
2017-06-10T00:22:20.954Z,0
2017-06-10T00:23:01.494Z,0
2017-06-10T00:23:42.109Z,0
2017-06-10T00:24:23.733Z,0
2017-06-10T00:25:04.262Z,0
2017-06-10T00:25:44.933Z,0
2017-06-10T00:26:25.485Z,0
2017-06-10T00:27:06.030Z,0
2017-06-10T00:27:46.646Z,0
2017-06-10T00:28:27.196Z,0
2017-06-10T00:29:07.859Z,0
2017-06-10T00:29:49.424Z,0
2017-06-10T00:30:29.969Z,0
2017-06-10T00:31:10.732Z,0
2017-06-10T00:31:51.281Z,0
2017-06-10T00:32:31.831Z,0
2017-06-10T00:33:12.437Z,0
2017-06-10T00:33:52.957Z,0
2017-06-10T00:34:38.035Z,0
2017-06-10T00:35:18.645Z,0
2017-06-10T00:35:59.238Z,0
2017-06-10T00:36:40.502Z,0
2017-06-10T00:37:22.101Z,0
2017-06-10T00:38:02.687Z,0
2017-06-10T00:38:43.345Z,0
2017-06-10T00:39:23.987Z,0
2017-06-10T00:40:04.649Z,0
2017-06-10T00:40:46.217Z,0
2017-06-10T00:41:26.772Z,0
2017-06-10T00:42:08.342Z,0
2017-06-10T00:42:49.904Z,0
2017-06-10T00:43:32.468Z,0
2017-06-10T00:44:13.107Z,0
2017-06-10T00:44:54.696Z,0
2017-06-10T00:45:35.348Z,0
2017-06-10T00:46:16.017Z,0
2017-06-10T00:46:56.648Z,0
2017-06-10T00:47:37.308Z,0
2017-06-10T00:48:17.834Z,0
2017-06-10T00:48:58.409Z,0
2017-06-10T00:49:39.003Z,0
2017-06-10T00:50:19.607Z,0
2017-06-10T00:51:00.139Z,0
2017-06-10T00:51:41.746Z,0
2017-06-10T00:52:22.334Z,0
2017-06-10T00:53:02.969Z,0
2017-06-10T00:53:43.480Z,0
2017-06-10T00:54:24.034Z,0
2017-06-10T00:55:05.661Z,0
2017-06-10T00:55:46.294Z,0
2017-06-10T00:56:26.791Z,0
2017-06-10T00:57:07.384Z,0
2017-06-10T00:57:48.990Z,0
2017-06-10T00:58:29.590Z,0
2017-06-10T00:59:10.113Z,0
2017-06-10T00:59:50.705Z,0
2017-06-10T01:00:32.324Z,0
2017-06-10T01:01:14.978Z,0
2017-06-10T01:01:55.492Z,0
2017-06-10T01:02:38.144Z,0
2017-06-10T01:03:19.749Z,0
2017-06-10T01:04:00.356Z,0
2017-06-10T01:04:40.906Z,0
2017-06-10T01:05:21.468Z,0
2017-06-10T01:06:02.214Z,0
2017-06-10T01:06:42.864Z,0
2017-06-10T01:07:23.387Z,0
2017-06-10T01:08:03.986Z,0
2017-06-10T01:08:44.563Z,0
2017-06-10T01:09:25.166Z,0
2017-06-10T01:10:05.690Z,0
2017-06-10T01:10:47.309Z,0
2017-06-10T01:11:28.943Z,0
2017-06-10T01:12:09.522Z,0
2017-06-10T01:12:50.044Z,0
2017-06-10T01:13:31.667Z,0
2017-06-10T01:14:12.246Z,0
2017-06-10T01:14:52.848Z,0
2017-06-10T01:15:33.372Z,0
2017-06-10T01:16:13.952Z,0
2017-06-10T01:16:55.580Z,0
2017-06-10T01:17:37.210Z,0
2017-06-10T01:18:18.890Z,0
2017-06-10T01:18:59.533Z,0
2017-06-10T01:19:40.189Z,0
2017-06-10T01:20:20.840Z,0
2017-06-10T01:21:01.497Z,0
2017-06-10T01:21:42.140Z,0
2017-06-10T01:22:22.801Z,0
2017-06-10T01:23:03.467Z,0
2017-06-10T01:23:44.113Z,0
2017-06-10T01:24:24.753Z,0
2017-06-10T01:25:05.427Z,0
2017-06-10T01:25:46.070Z,0
2017-06-10T01:26:27.748Z,0
2017-06-10T01:27:09.331Z,0
2017-06-10T01:27:50.018Z,0
2017-06-10T01:28:30.769Z,0
2017-06-10T01:29:11.423Z,0
2017-06-10T01:29:53.129Z,0
2017-06-10T01:30:33.753Z,0
2017-06-10T01:31:14.405Z,0
2017-06-10T01:31:55.059Z,0
2017-06-10T01:32:35.712Z,0
2017-06-10T01:33:16.367Z,0
2017-06-10T01:33:59.068Z,0
2017-06-10T01:34:39.761Z,0
2017-06-10T01:35:21.500Z,0
2017-06-10T01:36:04.199Z,0
2017-06-10T01:36:44.871Z,0
2017-06-10T01:37:27.555Z,0
2017-06-10T01:38:08.207Z,0
2017-06-10T01:38:48.859Z,0
2017-06-10T01:39:30.546Z,0
2017-06-10T01:40:11.191Z,0
2017-06-10T01:40:51.847Z,0
2017-06-10T01:41:32.496Z,0
2017-06-10T01:42:13.150Z,0
2017-06-10T01:42:53.803Z,0
2017-06-10T01:43:36.514Z,0
2017-06-10T01:44:18.189Z,0
2017-06-10T01:44:58.833Z,0
2017-06-10T01:45:40.611Z,0
2017-06-10T01:46:21.265Z,0
2017-06-10T01:47:01.922Z,0
2017-06-10T01:47:43.596Z,0
2017-06-10T01:48:24.252Z,0
2017-06-10T01:49:04.902Z,0
2017-06-10T01:49:45.557Z,0
2017-06-10T01:50:28.262Z,0
2017-06-10T01:51:08.907Z,0
2017-06-10T01:51:50.588Z,0
2017-06-10T01:52:31.255Z,0
2017-06-10T01:53:16.810Z,0
2017-06-10T01:53:57.463Z,0
2017-06-10T01:54:38.112Z,0
2017-06-10T01:55:23.374Z,0
2017-06-10T01:56:04.025Z,0
2017-06-10T01:56:55.328Z,0
2017-06-10T01:57:38.028Z,0
2017-06-10T01:58:18.681Z,0
2017-06-10T01:59:03.847Z,0
2017-06-10T01:59:44.496Z,0
2017-06-10T02:00:25.148Z,0
2017-06-10T02:01:05.802Z,0
2017-06-10T02:01:46.452Z,0
2017-06-10T02:02:28.130Z,0
2017-06-10T02:03:08.788Z,0
2017-06-10T02:03:51.495Z,0
2017-06-10T02:04:33.166Z,0
2017-06-10T02:05:13.817Z,0
2017-06-10T02:05:56.518Z,0
2017-06-10T02:06:37.169Z,0
2017-06-10T02:07:17.873Z,0
2017-06-10T02:07:59.609Z,0
2017-06-10T02:08:40.131Z,0
2017-06-10T02:09:20.930Z,0
2017-06-10T02:10:01.638Z,0
2017-06-10T02:10:48.879Z,0
2017-06-10T02:11:29.399Z,0
2017-06-10T02:12:11.105Z,0
2017-06-10T02:12:51.819Z,0
2017-06-10T02:13:34.466Z,0
2017-06-10T02:14:15.111Z,0
2017-06-10T02:14:57.814Z,0
2017-06-10T02:15:38.514Z,0
2017-06-10T02:16:19.212Z,0
2017-06-10T02:17:01.925Z,0
2017-06-10T02:17:44.627Z,0
2017-06-10T02:18:25.267Z,0
2017-06-10T02:19:05.928Z,0
2017-06-10T02:19:46.579Z,0
2017-06-10T02:20:27.243Z,0
2017-06-10T02:21:07.885Z,0
2017-06-10T02:21:48.535Z,0
2017-06-10T02:22:29.303Z,0
2017-06-10T02:23:09.947Z,0
2017-06-10T02:23:50.594Z,0
2017-06-10T02:24:33.295Z,0
2017-06-10T02:25:15.010Z,0
2017-06-10T02:25:55.629Z,0
2017-06-10T02:26:37.307Z,0
2017-06-10T02:27:17.960Z,0
2017-06-10T02:28:04.346Z,0
2017-06-10T02:28:44.998Z,0
2017-06-10T02:29:30.368Z,0
2017-06-10T02:30:12.042Z,0
2017-06-10T02:30:57.406Z,0
2017-06-10T02:31:39.085Z,0
2017-06-10T02:32:21.793Z,0
2017-06-10T02:33:02.564Z,0
2017-06-10T02:33:43.133Z,0
2017-06-10T02:34:23.770Z,0
2017-06-10T02:35:04.472Z,0
2017-06-10T02:35:45.143Z,0
2017-06-10T02:36:25.679Z,0
2017-06-10T02:37:07.382Z,0
2017-06-10T02:37:48.092Z,0
2017-06-10T02:38:29.811Z,0
2017-06-10T02:39:10.326Z,0
2017-06-10T02:39:52.040Z,0
2017-06-10T02:40:39.605Z,0
2017-06-10T02:41:20.312Z,0
2017-06-10T02:42:00.822Z,0
2017-06-10T02:42:41.538Z,0
2017-06-10T02:43:22.252Z,0
2017-06-10T02:44:04.967Z,0
2017-06-10T02:44:45.483Z,0
2017-06-10T02:45:26.212Z,0
2017-06-10T02:46:06.874Z,0
2017-06-10T02:46:48.604Z,0
2017-06-10T02:47:29.150Z,0
2017-06-10T02:48:14.730Z,0
2017-06-10T02:48:55.431Z,0
2017-06-10T02:49:36.128Z,0
2017-06-10T02:50:16.636Z,0
2017-06-10T02:50:57.247Z,0
2017-06-10T02:51:37.837Z,0
2017-06-10T02:52:18.430Z,0
2017-06-10T02:52:58.988Z,0
2017-06-10T02:53:40.584Z,0
2017-06-10T02:54:21.166Z,0
2017-06-10T02:55:01.776Z,0
2017-06-10T02:55:42.298Z,0
2017-06-10T02:56:22.902Z,0
2017-06-10T02:57:04.493Z,0
2017-06-10T02:57:45.086Z,0
2017-06-10T02:58:25.635Z,0
2017-06-10T02:59:06.187Z,0
2017-06-10T02:59:46.794Z,4
2017-06-10T03:00:27.404Z,4
2017-06-10T03:01:07.925Z,4
2017-06-10T03:01:48.520Z,4
2017-06-10T03:02:29.110Z,4
2017-06-10T03:03:09.702Z,0
2017-06-10T03:03:51.274Z,0
2017-06-10T03:04:31.834Z,0
2017-06-10T03:05:12.492Z,0
2017-06-10T03:05:55.086Z,0
2017-06-10T03:06:35.635Z,0
2017-06-10T03:07:16.191Z,4
2017-06-10T03:07:56.739Z,4
2017-06-10T03:08:37.291Z,4
2017-06-10T03:09:23.776Z,4
2017-06-10T03:10:04.329Z,4
2017-06-10T03:10:44.880Z,4
2017-06-10T03:11:26.447Z,4
2017-06-10T03:12:09.055Z,0
2017-06-10T03:12:49.611Z,4
2017-06-10T03:13:30.245Z,4
2017-06-10T03:14:10.805Z,4
2017-06-10T03:14:53.407Z,4
2017-06-10T03:15:34.055Z,4
2017-06-10T03:16:14.708Z,4
2017-06-10T03:16:56.287Z,4
2017-06-10T03:17:38.889Z,8
2017-06-10T03:18:19.410Z,8
2017-06-10T03:18:59.995Z,4
2017-06-10T03:19:40.613Z,4
2017-06-10T03:20:21.187Z,4
2017-06-10T03:21:01.713Z,4
2017-06-10T03:21:43.323Z,8
2017-06-10T03:22:23.916Z,8
2017-06-10T03:23:04.527Z,8
2017-06-10T03:23:46.086Z,8
2017-06-10T03:24:26.769Z,8
2017-06-10T03:25:07.298Z,8
2017-06-10T03:25:47.852Z,8
2017-06-10T03:26:33.312Z,8
2017-06-10T03:27:18.777Z,8
2017-06-10T03:27:59.328Z,8
2017-06-10T03:28:39.849Z,12
2017-06-10T03:29:20.437Z,12
2017-06-10T03:30:01.052Z,8
2017-06-10T03:30:41.632Z,8
2017-06-10T03:31:22.152Z,8
2017-06-10T03:32:02.756Z,12
2017-06-10T03:32:43.373Z,12
2017-06-10T03:33:24.140Z,12
2017-06-10T03:34:04.664Z,12
2017-06-10T03:34:45.274Z,12
2017-06-10T03:35:25.849Z,12
2017-06-10T03:36:06.455Z,12
2017-06-10T03:36:46.979Z,12
2017-06-10T03:37:27.554Z,12
2017-06-10T03:38:10.218Z,16
2017-06-10T03:38:51.821Z,16
2017-06-10T03:39:32.358Z,16
2017-06-10T03:40:14.002Z,12
2017-06-10T03:40:55.614Z,12
2017-06-10T03:41:36.155Z,16
2017-06-10T03:42:16.777Z,16
2017-06-10T03:42:57.381Z,16
2017-06-10T03:43:38.967Z,16
2017-06-10T03:44:19.609Z,16
2017-06-10T03:45:00.261Z,20
2017-06-10T03:45:40.914Z,16
2017-06-10T03:46:21.608Z,16
2017-06-10T03:47:03.248Z,16
2017-06-10T03:47:43.949Z,16
2017-06-10T03:48:24.476Z,20
2017-06-10T03:49:05.103Z,20
2017-06-10T03:49:45.705Z,20
2017-06-10T03:50:26.309Z,20
2017-06-10T03:51:06.826Z,16
2017-06-10T03:51:47.426Z,20
2017-06-10T03:52:29.039Z,20
2017-06-10T03:53:09.642Z,20
2017-06-10T03:53:50.161Z,20
2017-06-10T03:54:35.655Z,20
2017-06-10T03:55:17.282Z,24
2017-06-10T03:55:58.905Z,24
2017-06-10T03:56:39.426Z,20
2017-06-10T03:57:21.035Z,20
2017-06-10T03:58:01.637Z,20
2017-06-10T03:58:43.255Z,24
2017-06-10T03:59:23.779Z,24
2017-06-10T04:00:04.428Z,24
2017-06-10T04:00:45.640Z,24
2017-06-10T04:01:26.179Z,24
2017-06-10T04:02:07.817Z,24
2017-06-10T04:02:49.432Z,24
2017-06-10T04:03:29.951Z,24
2017-06-10T04:04:10.580Z,24
2017-06-10T04:04:51.184Z,24
2017-06-10T04:05:31.840Z,28
2017-06-10T04:06:17.338Z,28
2017-06-10T04:07:02.866Z,28
2017-06-10T04:07:43.546Z,24
2017-06-10T04:08:24.052Z,24
2017-06-10T04:09:05.652Z,24
2017-06-10T04:09:46.247Z,28
2017-06-10T04:10:26.856Z,28
2017-06-10T04:11:07.398Z,28
2017-06-10T04:11:48.947Z,28
2017-06-10T04:12:30.147Z,28
2017-06-10T04:13:12.740Z,28
2017-06-10T04:13:53.289Z,32
2017-06-10T04:14:33.903Z,28
2017-06-10T04:15:15.522Z,28
2017-06-10T04:15:56.039Z,28
2017-06-10T04:16:36.675Z,28
2017-06-10T04:17:17.270Z,28
2017-06-10T04:17:57.796Z,32
2017-06-10T04:18:38.429Z,32
2017-06-10T04:19:24.112Z,32
2017-06-10T04:20:04.770Z,28
2017-06-10T04:20:46.429Z,32
2017-06-10T04:21:27.091Z,32
2017-06-10T04:22:07.748Z,32
2017-06-10T04:22:48.402Z,32
2017-06-10T04:23:31.004Z,32
2017-06-10T04:24:11.578Z,32
2017-06-10T04:24:52.112Z,32
2017-06-10T04:25:32.797Z,32
2017-06-10T04:26:13.435Z,36
2017-06-10T04:26:54.091Z,36
2017-06-10T04:27:34.612Z,32
2017-06-10T04:28:16.357Z,32
2017-06-10T04:28:57.043Z,32
2017-06-10T04:29:38.656Z,36
2017-06-10T04:30:19.239Z,36
2017-06-10T04:31:00.890Z,36
2017-06-10T04:31:43.540Z,36
2017-06-10T04:32:24.133Z,36
2017-06-10T04:33:04.658Z,36
2017-06-10T04:33:50.144Z,36
2017-06-10T04:34:31.779Z,40
2017-06-10T04:35:12.377Z,40
2017-06-10T04:35:52.893Z,40
2017-06-10T04:36:35.531Z,36
2017-06-10T04:37:17.164Z,40
2017-06-10T04:37:57.749Z,40
2017-06-10T04:38:38.274Z,40
2017-06-10T04:39:19.875Z,40
2017-06-10T04:40:00.489Z,44
2017-06-10T04:40:43.137Z,40
2017-06-10T04:41:23.672Z,44
2017-06-10T04:42:04.344Z,44
2017-06-10T04:42:45.958Z,44
2017-06-10T04:43:26.558Z,48
2017-06-10T04:44:07.220Z,52
2017-06-10T04:44:47.868Z,48
2017-06-10T04:45:28.521Z,52
2017-06-10T04:46:09.174Z,52
2017-06-10T04:46:49.699Z,52
2017-06-10T04:47:31.297Z,56
2017-06-10T04:48:11.808Z,52
2017-06-10T04:48:53.525Z,52
2017-06-10T04:49:36.124Z,56
2017-06-10T04:50:16.776Z,52
2017-06-10T04:51:03.371Z,52
2017-06-10T04:51:45.048Z,56
2017-06-10T04:52:27.649Z,56
2017-06-10T04:53:08.144Z,56
2017-06-10T04:53:54.796Z,56
2017-06-10T04:54:36.466Z,56
2017-06-10T04:55:18.156Z,60
2017-06-10T04:55:59.821Z,56
2017-06-10T04:56:40.477Z,56
2017-06-10T04:57:21.152Z,60
2017-06-10T04:58:02.801Z,56
2017-06-10T04:58:43.328Z,52
2017-06-10T04:59:23.982Z,48
2017-06-10T05:00:05.579Z,52
2017-06-10T05:00:46.075Z,48
2017-06-10T05:01:26.726Z,52
2017-06-10T05:02:07.230Z,52
2017-06-10T05:02:47.882Z,52
2017-06-10T05:03:28.377Z,52
2017-06-10T05:04:09.061Z,48
2017-06-10T05:04:56.526Z,44
2017-06-10T05:05:37.200Z,48
2017-06-10T05:06:17.849Z,48
2017-06-10T05:06:58.502Z,48
2017-06-10T05:07:39.160Z,48
2017-06-10T05:08:19.761Z,48
2017-06-10T05:09:00.284Z,48
2017-06-10T05:09:40.873Z,48
2017-06-10T05:10:21.392Z,48
2017-06-10T05:11:02.987Z,48
2017-06-10T05:11:44.609Z,48
2017-06-10T05:12:25.220Z,48
2017-06-10T05:13:05.709Z,48
2017-06-10T05:13:46.341Z,52
2017-06-10T05:14:26.945Z,48
2017-06-10T05:15:07.625Z,48
2017-06-10T05:15:48.121Z,48
2017-06-10T05:16:28.736Z,48
2017-06-10T05:17:09.251Z,52
2017-06-10T05:17:49.837Z,48
2017-06-10T05:18:30.372Z,48
2017-06-10T05:19:11.090Z,48
2017-06-10T05:19:51.611Z,48
2017-06-10T05:20:32.332Z,48
2017-06-10T05:21:12.981Z,48
2017-06-10T05:21:53.482Z,48
2017-06-10T05:22:34.134Z,48
2017-06-10T05:23:14.668Z,48
2017-06-10T05:23:55.313Z,48
2017-06-10T05:24:35.843Z,48
2017-06-10T05:25:16.523Z,48
2017-06-10T05:25:57.028Z,48
2017-06-10T05:26:37.551Z,52
2017-06-10T05:27:18.187Z,52
2017-06-10T05:27:58.722Z,52
2017-06-10T05:28:39.327Z,48
2017-06-10T05:29:20.933Z,52
2017-06-10T05:30:01.599Z,52
2017-06-10T05:30:42.106Z,52
2017-06-10T05:31:22.788Z,52
2017-06-10T05:32:03.442Z,52
2017-06-10T05:32:46.672Z,52
2017-06-10T05:33:27.212Z,52
2017-06-10T05:34:07.802Z,52
2017-06-10T05:34:48.325Z,52
2017-06-10T05:35:28.874Z,52
2017-06-10T05:36:09.549Z,56
2017-06-10T05:36:50.208Z,56
2017-06-10T05:37:30.861Z,52
2017-06-10T05:38:11.516Z,52
2017-06-10T05:38:52.038Z,52
2017-06-10T05:39:32.729Z,52
2017-06-10T05:40:13.427Z,52
2017-06-10T05:40:54.120Z,56
2017-06-10T05:41:34.650Z,52
2017-06-10T05:42:15.329Z,52
2017-06-10T05:42:56.059Z,52
2017-06-10T05:43:36.587Z,52
2017-06-10T05:44:17.315Z,52
2017-06-10T05:44:57.999Z,56
2017-06-10T05:45:38.524Z,56
2017-06-10T05:46:19.277Z,56
2017-06-10T05:46:59.767Z,56
2017-06-10T05:47:40.458Z,56
2017-06-10T05:48:20.991Z,56
2017-06-10T05:49:03.699Z,56
2017-06-10T05:49:45.389Z,56
2017-06-10T05:50:26.040Z,56
2017-06-10T05:51:07.714Z,52
2017-06-10T05:51:48.252Z,56
2017-06-10T05:52:28.935Z,56
2017-06-10T05:53:09.575Z,52
2017-06-10T05:53:50.290Z,52
2017-06-10T05:54:30.929Z,56
2017-06-10T05:55:11.593Z,56
2017-06-10T05:55:52.230Z,56
2017-06-10T05:56:32.777Z,56
2017-06-10T05:57:13.479Z,56
2017-06-10T05:57:54.151Z,56
2017-06-10T05:58:36.270Z,56
2017-06-10T05:59:16.973Z,56
2017-06-10T05:59:57.626Z,60
2017-06-10T06:00:38.295Z,60
2017-06-10T06:01:19.034Z,60
2017-06-10T06:01:59.686Z,60
2017-06-10T06:02:40.441Z,56
2017-06-10T06:03:21.099Z,56
2017-06-10T06:04:01.747Z,60
2017-06-10T06:04:42.403Z,60
2017-06-10T06:05:27.980Z,56
2017-06-10T06:06:08.622Z,60
2017-06-10T06:06:49.144Z,60
2017-06-10T06:07:29.851Z,60
2017-06-10T06:08:10.481Z,60
2017-06-10T06:08:51.160Z,60
2017-06-10T06:09:32.729Z,60
2017-06-10T06:10:13.460Z,60
2017-06-10T06:10:54.010Z,60
2017-06-10T06:11:34.664Z,64
2017-06-10T06:12:15.313Z,60
2017-06-10T06:12:55.977Z,64
2017-06-10T06:13:36.519Z,64
2017-06-10T06:14:17.194Z,64
2017-06-10T06:14:57.878Z,60
2017-06-10T06:15:38.583Z,64
2017-06-10T06:16:19.111Z,64
2017-06-10T06:16:59.684Z,64
2017-06-10T06:17:40.211Z,64
2017-06-10T06:18:20.803Z,64
2017-06-10T06:19:01.405Z,64
2017-06-10T06:19:42.059Z,64
2017-06-10T06:20:22.707Z,64
2017-06-10T06:21:03.376Z,60
2017-06-10T06:21:44.014Z,64
2017-06-10T06:22:24.581Z,64
2017-06-10T06:23:05.227Z,64
2017-06-10T06:23:45.870Z,68
2017-06-10T06:24:26.523Z,64
2017-06-10T06:25:07.179Z,64
2017-06-10T06:25:52.543Z,64
2017-06-10T06:26:38.112Z,64
2017-06-10T06:27:18.767Z,68
2017-06-10T06:28:11.080Z,64
2017-06-10T06:28:51.639Z,64
2017-06-10T06:29:34.236Z,68
2017-06-10T06:30:19.599Z,64
2017-06-10T06:31:02.485Z,64
2017-06-10T06:31:44.077Z,68
2017-06-10T06:32:24.633Z,68
2017-06-10T06:33:18.086Z,68
2017-06-10T06:33:58.677Z,68
2017-06-10T06:34:41.280Z,68
2017-06-10T06:35:22.965Z,68
2017-06-10T06:36:03.605Z,68
2017-06-10T06:36:44.261Z,68
2017-06-10T06:37:40.378Z,68
2017-06-10T06:40:08.783Z,68
2017-06-10T06:40:54.330Z,72
2017-06-10T06:41:39.808Z,72
2017-06-10T06:42:31.316Z,68
2017-06-10T06:43:12.927Z,72
2017-06-10T06:43:58.185Z,72
2017-06-10T06:44:51.474Z,72
2017-06-10T06:45:32.002Z,72
2017-06-10T06:46:17.243Z,72
2017-06-10T06:46:58.869Z,72
2017-06-10T06:47:39.383Z,76
2017-06-10T06:48:19.896Z,72
2017-06-10T06:49:00.441Z,76
2017-06-10T06:49:41.083Z,76
2017-06-10T06:50:21.609Z,76
2017-06-10T06:51:03.198Z,76
2017-06-10T06:51:43.718Z,76
2017-06-10T06:52:24.398Z,76
2017-06-10T06:53:04.926Z,80
2017-06-10T06:53:45.560Z,80
2017-06-10T06:54:26.065Z,84
2017-06-10T06:55:06.728Z,80
2017-06-10T06:55:47.240Z,84
2017-06-10T06:56:27.812Z,76
2017-06-10T06:57:08.412Z,80
2017-06-10T06:57:48.929Z,80
2017-06-10T06:58:29.502Z,80
2017-06-10T06:59:10.121Z,80
2017-06-10T06:59:50.775Z,76
2017-06-10T07:00:31.319Z,76
2017-06-10T07:01:11.982Z,76
2017-06-10T07:01:52.624Z,76
2017-06-10T07:02:33.171Z,76
2017-06-10T07:03:13.720Z,76
2017-06-10T07:03:54.284Z,76
2017-06-10T07:04:34.831Z,76
2017-06-10T07:05:15.368Z,76
2017-06-10T07:05:55.922Z,76
2017-06-10T07:06:36.481Z,80
2017-06-10T07:07:17.027Z,80
2017-06-10T07:07:57.573Z,76
2017-06-10T07:08:38.133Z,76
2017-06-10T07:09:18.678Z,76
2017-06-10T07:09:59.226Z,80
2017-06-10T07:10:39.779Z,80
2017-06-10T07:11:20.429Z,80
2017-06-10T07:12:00.977Z,80
2017-06-10T07:12:42.561Z,84
2017-06-10T07:13:23.090Z,84
2017-06-10T07:14:04.513Z,84
2017-06-10T07:14:45.143Z,84
2017-06-10T07:15:25.660Z,84
2017-06-10T07:16:06.201Z,88
2017-06-10T07:16:46.803Z,88
2017-06-10T07:17:27.324Z,88
2017-06-10T07:18:07.891Z,88
2017-06-10T07:18:48.706Z,88
2017-06-10T07:19:29.244Z,88
2017-06-10T07:20:09.853Z,88
2017-06-10T07:20:50.493Z,88
2017-06-10T07:21:31.015Z,88
2017-06-10T07:22:11.560Z,88
2017-06-10T07:22:52.147Z,88
2017-06-10T07:23:32.667Z,84
2017-06-10T07:24:13.253Z,84
2017-06-10T07:24:53.904Z,84
2017-06-10T07:25:34.558Z,88
2017-06-10T07:26:15.117Z,84
2017-06-10T07:26:55.761Z,88
2017-06-10T07:27:36.424Z,88
2017-06-10T07:28:17.066Z,88
2017-06-10T07:28:57.635Z,88
2017-06-10T07:29:38.275Z,88
2017-06-10T07:30:18.926Z,88
2017-06-10T07:30:59.484Z,92
2017-06-10T07:31:40.020Z,88
2017-06-10T07:32:20.574Z,88
2017-06-10T07:33:01.228Z,92
2017-06-10T07:33:41.885Z,88
2017-06-10T07:34:22.424Z,92
2017-06-10T07:35:03.026Z,92
2017-06-10T07:35:43.587Z,92
2017-06-10T07:36:24.183Z,88
2017-06-10T07:37:04.708Z,92
2017-06-10T07:37:45.318Z,92
2017-06-10T07:38:25.903Z,88
2017-06-10T07:39:06.418Z,92
2017-06-10T07:39:47.037Z,88
2017-06-10T07:40:27.588Z,92
2017-06-10T07:41:08.085Z,92
2017-06-10T07:41:48.687Z,92
2017-06-10T07:42:29.183Z,92
2017-06-10T07:43:09.684Z,96
2017-06-10T07:43:50.211Z,92
2017-06-10T07:44:30.711Z,96
2017-06-10T07:45:11.289Z,96
2017-06-10T07:45:51.798Z,100
2017-06-10T07:46:32.437Z,96
2017-06-10T07:47:12.983Z,96
2017-06-10T07:47:53.484Z,100
2017-06-10T07:48:34.022Z,104
2017-06-10T07:49:15.151Z,100
2017-06-10T07:49:55.729Z,96
2017-06-10T07:50:36.260Z,96
2017-06-10T07:51:16.820Z,92
2017-06-10T07:51:57.378Z,96
2017-06-10T07:52:38.016Z,96
2017-06-10T07:53:18.566Z,104
2017-06-10T07:53:59.219Z,100
2017-06-10T07:54:39.738Z,100
2017-06-10T07:55:20.428Z,96
2017-06-10T07:56:01.062Z,104
2017-06-10T07:56:41.735Z,100
2017-06-10T07:57:22.386Z,100
2017-06-10T07:58:02.936Z,100
2017-06-10T07:58:43.476Z,104
2017-06-10T07:59:24.005Z,100
2017-06-10T08:00:04.554Z,104
2017-06-10T08:00:45.098Z,100
2017-06-10T08:01:25.613Z,104
2017-06-10T08:02:06.141Z,104
2017-06-10T08:02:46.688Z,104
2017-06-10T08:03:27.222Z,108
2017-06-10T08:04:07.801Z,112
2017-06-10T08:04:48.327Z,112
2017-06-10T08:05:28.847Z,120
2017-06-10T08:06:09.429Z,116
2017-06-10T08:06:49.931Z,124
2017-06-10T08:07:30.490Z,124
2017-06-10T08:08:11.047Z,140
2017-06-10T08:08:51.565Z,128
2017-06-10T08:09:32.079Z,128
2017-06-10T08:10:12.591Z,128
2017-06-10T08:10:53.209Z,132
2017-06-10T08:11:33.734Z,136
2017-06-10T08:12:14.323Z,140
2017-06-10T08:12:54.838Z,180
2017-06-10T08:13:35.348Z,144
2017-06-10T08:14:15.889Z,164
2017-06-10T08:14:56.496Z,140
2017-06-10T08:15:37.036Z,140
2017-06-10T08:16:17.638Z,140
2017-06-10T08:16:58.268Z,140
2017-06-10T08:17:38.792Z,144
2017-06-10T08:18:19.375Z,148
2017-06-10T08:19:00.009Z,140
2017-06-10T08:19:40.612Z,148
2017-06-10T08:20:21.271Z,148
2017-06-10T08:21:01.949Z,148
2017-06-10T08:21:42.565Z,152
2017-06-10T08:22:23.154Z,152
2017-06-10T08:23:03.807Z,172
2017-06-10T08:23:44.429Z,156
2017-06-10T08:24:25.021Z,164
2017-06-10T08:25:05.563Z,172
2017-06-10T08:25:46.121Z,160
2017-06-10T08:26:26.657Z,180
2017-06-10T08:27:07.275Z,160
2017-06-10T08:27:47.823Z,168
2017-06-10T08:28:28.428Z,172
2017-06-10T08:29:08.960Z,168
2017-06-10T08:29:49.558Z,172
2017-06-10T08:30:30.082Z,180
2017-06-10T08:31:10.721Z,184
2017-06-10T08:31:51.248Z,180
2017-06-10T08:32:31.785Z,176
2017-06-10T08:35:00.241Z,188
2017-06-10T08:35:40.877Z,184
2017-06-10T08:36:21.412Z,188
2017-06-10T08:37:01.976Z,200
2017-06-10T08:37:43.555Z,200
2017-06-10T08:38:25.137Z,200
2017-06-10T08:39:05.783Z,196
2017-06-10T08:39:46.301Z,204
2017-06-10T08:40:26.946Z,228
2017-06-10T08:41:07.485Z,216
2017-06-10T08:41:48.132Z,232
2017-06-10T08:42:28.645Z,252
2017-06-10T08:43:09.168Z,264
2017-06-10T08:43:49.751Z,268
2017-06-10T08:44:30.295Z,268
2017-06-10T08:45:10.837Z,280
2017-06-10T08:45:51.434Z,304
2017-06-10T08:46:32.059Z,316
2017-06-10T08:47:12.596Z,320
2017-06-10T08:47:53.133Z,316
2017-06-10T08:48:33.661Z,324
2017-06-10T08:49:14.235Z,332
2017-06-10T08:49:54.794Z,332
2017-06-10T08:50:35.337Z,336
2017-06-10T08:51:15.894Z,340
2017-06-10T08:51:56.439Z,344
2017-06-10T08:52:37.093Z,344
2017-06-10T08:53:17.631Z,348
2017-06-10T08:53:58.232Z,348
2017-06-10T08:54:38.868Z,352
2017-06-10T08:55:19.453Z,352
2017-06-10T08:55:59.971Z,356
2017-06-10T08:56:40.602Z,356
2017-06-10T08:57:21.263Z,360
2017-06-10T08:58:01.787Z,364
2017-06-10T08:58:42.325Z,364
2017-06-10T08:59:22.902Z,368
2017-06-10T09:00:03.424Z,372
2017-06-10T09:00:43.939Z,376
2017-06-10T09:01:24.444Z,376
2017-06-10T09:02:04.978Z,376
2017-06-10T09:02:45.582Z,376
2017-06-10T09:03:26.139Z,376
2017-06-10T09:04:06.651Z,380
2017-06-10T09:04:47.364Z,384
2017-06-10T09:05:27.963Z,388
2017-06-10T09:06:08.692Z,392
2017-06-10T09:06:49.277Z,396
2017-06-10T09:07:29.819Z,404
2017-06-10T09:08:10.469Z,416
2017-06-10T09:08:51.020Z,436
2017-06-10T09:09:31.692Z,448
2017-06-10T09:10:12.326Z,452
2017-06-10T09:10:52.981Z,460
2017-06-10T09:11:39.444Z,488
2017-06-10T09:12:26.095Z,504
2017-06-10T09:13:06.714Z,504
2017-06-10T09:13:47.342Z,516
2017-06-10T09:14:27.863Z,540
2017-06-10T09:15:21.382Z,580
2017-06-10T09:16:06.672Z,496
2017-06-10T09:16:49.306Z,480
2017-06-10T09:17:29.871Z,500
2017-06-10T09:18:11.468Z,460
2017-06-10T09:19:03.047Z,512
2017-06-10T09:19:43.586Z,448
2017-06-10T09:20:24.217Z,556
2017-06-10T09:21:09.506Z,648
2017-06-10T09:21:50.057Z,540
2017-06-10T09:22:30.671Z,616
2017-06-10T09:23:11.260Z,584
2017-06-10T09:23:51.779Z,500
2017-06-10T09:24:38.168Z,540
2017-06-10T09:25:25.527Z,588
2017-06-10T09:26:06.033Z,472
2017-06-10T09:26:47.667Z,568
2017-06-10T09:27:28.256Z,584
2017-06-10T09:28:09.893Z,576
2017-06-10T09:28:50.421Z,572
2017-06-10T09:29:33.037Z,552
2017-06-10T09:30:15.637Z,604
2017-06-10T09:31:12.954Z,560
2017-06-10T09:31:58.328Z,616
2017-06-10T09:32:38.862Z,636
2017-06-10T09:33:20.442Z,632
2017-06-10T09:34:07.915Z,652
2017-06-10T10:00:02.091Z,880
2017-06-10T10:00:44.705Z,876
2017-06-10T10:01:25.337Z,1072
2017-06-10T10:02:05.889Z,1020
2017-06-10T10:02:47.472Z,1080
2017-06-10T10:03:28.011Z,692
2017-06-10T10:04:09.586Z,748
2017-06-10T10:04:50.151Z,768
2017-06-10T10:05:31.761Z,804
2017-06-10T10:06:18.923Z,808
2017-06-10T10:06:59.455Z,840
2017-06-10T10:07:40.082Z,976
2017-06-10T10:08:20.616Z,880
2017-06-10T10:09:01.227Z,888
2017-06-10T10:09:41.754Z,852
2017-06-10T10:10:23.308Z,940
2017-06-10T10:11:03.919Z,884
2017-06-10T10:11:44.436Z,928
2017-06-10T10:12:25.055Z,920
2017-06-10T10:13:06.718Z,844
2017-06-10T10:13:47.266Z,904
2017-06-10T10:14:28.863Z,1080
2017-06-10T10:15:11.505Z,964
2017-06-10T10:15:52.057Z,924
2017-06-10T10:16:32.617Z,872
2017-06-10T10:17:14.247Z,1012
2017-06-10T10:17:54.838Z,932
2017-06-10T10:18:35.436Z,1016
2017-06-10T10:19:20.846Z,936